createdAt,value
2023-03-22T00:01:01.514Z,1.5
2023-03-22T00:02:04.655Z,1.7
2023-03-22T00:08:14.021Z,2.1
2023-03-22T00:10:20.355Z,1.5
2023-03-22T00:12:23.470Z,2.4
2023-03-22T00:14:27.272Z,2
2023-03-22T00:18:32.862Z,1.1
2023-03-22T00:20:35.952Z,1.1
2023-03-22T00:22:39.080Z,1.4
2023-03-22T00:24:45.402Z,0.8
2023-03-22T00:30:54.802Z,1.2
2023-03-22T00:37:04.218Z,1.7
2023-03-22T00:39:10.523Z,1.5
2023-03-22T00:41:13.650Z,0.8
2023-03-22T00:43:16.769Z,1.1
2023-03-22T00:45:19.882Z,1.1
2023-03-22T00:47:22.981Z,1.2
2023-03-22T00:49:26.118Z,0.9
2023-03-22T00:53:35.588Z,0.4
2023-03-22T00:55:38.726Z,1.4
2023-03-22T00:57:41.872Z,1
2023-03-22T01:00:03.878Z,1.1
2023-03-22T01:02:07.013Z,1.2
2023-03-22T01:04:10.146Z,1.7
2023-03-22T01:06:16.449Z,0.9
2023-03-22T01:08:19.613Z,1.1
2023-03-22T01:10:22.721Z,1.7
2023-03-22T01:12:25.825Z,1
2023-03-22T01:14:28.957Z,0.7
2023-03-22T01:16:32.138Z,1.6
2023-03-22T01:18:35.183Z,1
2023-03-22T01:20:41.786Z,0.5
2023-03-22T01:22:44.640Z,1.1
2023-03-22T01:24:47.742Z,1.3
2023-03-22T01:28:53.994Z,0.7
2023-03-22T01:30:57.196Z,1.2
2023-03-22T01:33:00.254Z,0.3
2023-03-22T01:35:06.588Z,0.7
2023-03-22T01:39:12.861Z,0.4
2023-03-22T01:41:15.965Z,0.4
2023-03-22T01:43:19.120Z,2.6
2023-03-22T01:45:22.248Z,0.1
2023-03-22T01:47:25.447Z,0.4
2023-03-22T01:49:31.679Z,0.3
2023-03-22T01:51:34.786Z,0.4
2023-03-22T01:53:39.483Z,0.4
2023-03-22T01:54:42.631Z,0.4
2023-03-22T01:58:48.868Z,0.4
2023-03-22T02:02:58.382Z,0.8
2023-03-22T02:07:05.227Z,0.6
2023-03-22T02:09:07.679Z,0.4
2023-03-22T02:11:10.806Z,0.1
2023-03-22T02:13:13.951Z,0.1
2023-03-22T02:15:17.070Z,0.2
2023-03-22T02:17:23.397Z,0.2
2023-03-22T02:23:32.801Z,0.7
2023-03-22T02:25:35.919Z,0.2
2023-03-22T02:27:39.056Z,0.4
2023-03-22T02:31:48.506Z,0.5
2023-03-22T02:33:51.647Z,0.3
2023-03-22T02:35:54.794Z,1.3
2023-03-22T02:37:57.929Z,1.3
2023-03-22T02:40:01.035Z,0.7
2023-03-22T02:42:04.147Z,0.8
2023-03-22T02:44:07.277Z,1.1
2023-03-22T02:46:13.671Z,1.2
2023-03-22T02:50:19.926Z,1.7
2023-03-22T02:51:23.086Z,1.3
2023-03-22T02:53:26.206Z,1.8
2023-03-22T02:55:29.325Z,3.5
2023-03-22T02:57:32.474Z,2.9
2023-03-22T02:59:38.814Z,2.5
2023-03-22T03:01:41.997Z,3.2
2023-03-22T03:03:45.059Z,3.2
2023-03-22T03:05:48.197Z,2.9
2023-03-22T03:09:54.453Z,2.9
2023-03-22T03:11:57.558Z,5.4
2023-03-22T03:14:03.911Z,4.2
2023-03-22T03:16:07.112Z,6
2023-03-22T03:18:10.177Z,4.3
2023-03-22T03:20:13.267Z,5.6
2023-03-22T03:22:16.391Z,6
2023-03-22T03:24:19.511Z,4.5
2023-03-22T03:26:22.650Z,6.2
2023-03-22T03:28:29.005Z,5.5
2023-03-22T03:30:32.143Z,7.7
2023-03-22T03:32:35.306Z,5.8
2023-03-22T03:34:38.429Z,7
2023-03-22T03:38:44.700Z,6.8
2023-03-22T03:40:47.800Z,4.4
2023-03-22T03:42:54.151Z,7
2023-03-22T03:44:57.295Z,6.4
2023-03-22T03:47:00.462Z,6.1
2023-03-22T03:48:03.652Z,7
2023-03-22T03:50:06.733Z,5.3
2023-03-22T03:54:13.010Z,6.8
2023-03-22T04:00:25.655Z,6.5
2023-03-22T04:06:35.075Z,7.4
2023-03-22T04:08:38.206Z,5.9
2023-03-22T04:10:44.531Z,5.5
2023-03-22T04:12:47.686Z,5.8
2023-03-22T04:14:50.806Z,6
2023-03-22T04:16:53.984Z,4.2
2023-03-22T04:18:57.099Z,6.6
2023-03-22T04:21:00.215Z,5.7
2023-03-22T04:23:03.350Z,4.5
2023-03-22T04:25:09.719Z,5
2023-03-22T04:27:12.844Z,6
2023-03-22T04:29:16.036Z,5.5
2023-03-22T04:31:19.211Z,5.2
2023-03-22T04:33:22.251Z,6.7
2023-03-22T04:35:25.388Z,5.1
2023-03-22T04:37:28.530Z,6.5
2023-03-22T04:39:34.848Z,5.8
2023-03-22T04:43:41.115Z,4.6
2023-03-22T04:46:03.151Z,5.6
2023-03-22T04:48:06.351Z,5.7
2023-03-22T04:50:09.402Z,5.9
2023-03-22T04:52:15.738Z,5.2
2023-03-22T04:56:21.999Z,5.4
2023-03-22T04:58:25.120Z,5.7
2023-03-22T05:00:28.301Z,6.2
2023-03-22T05:04:34.529Z,6.1
2023-03-22T05:08:44.004Z,4.1
2023-03-22T05:14:53.384Z,4.7
2023-03-22T05:21:05.984Z,8.6
2023-03-22T05:23:09.107Z,5.6
2023-03-22T05:25:12.244Z,3.4
2023-03-22T05:27:15.470Z,4.1
2023-03-22T05:29:18.480Z,4.5
2023-03-22T05:31:24.300Z,3.3
2023-03-22T05:33:24.744Z,2.8
2023-03-22T05:35:31.111Z,3.4
2023-03-22T05:37:34.211Z,3.2
2023-03-22T05:39:37.327Z,4.2
2023-03-22T05:40:40.868Z,3.5
2023-03-22T05:42:43.646Z,3
2023-03-22T05:44:46.771Z,3
2023-03-22T05:46:50.251Z,4
2023-03-22T05:48:56.220Z,2.9
2023-03-22T05:50:59.354Z,2.4
2023-03-22T05:53:02.475Z,1.3
2023-03-22T05:55:05.591Z,4.7
2023-03-22T05:57:08.713Z,2.3
2023-03-22T05:59:11.854Z,1.3
2023-03-22T06:01:14.984Z,1.9
2023-03-22T06:03:21.422Z,2.1
2023-03-22T06:05:24.487Z,3.1
2023-03-22T06:07:27.621Z,2.4
2023-03-22T06:09:30.729Z,2.1
2023-03-22T06:11:33.871Z,3.8
2023-03-22T06:13:36.989Z,1.6
2023-03-22T06:15:40.142Z,2.6
2023-03-22T06:17:46.455Z,2.9
2023-03-22T06:19:51.973Z,2
2023-03-22T06:21:52.723Z,2.5
2023-03-22T06:23:55.861Z,2
2023-03-22T06:25:59.002Z,3.3
2023-03-22T06:28:02.131Z,0.9
2023-03-22T06:30:05.270Z,2.2
2023-03-22T06:32:11.607Z,1.6
2023-03-22T06:34:14.714Z,1.4
2023-03-22T06:37:21.056Z,1.3
2023-03-22T06:39:24.150Z,2.1
2023-03-22T06:41:27.260Z,3
2023-03-22T06:43:30.379Z,1.2
2023-03-22T06:45:36.742Z,1.7
2023-03-22T06:47:39.825Z,1.7
2023-03-22T06:49:42.966Z,1.5
2023-03-22T06:55:54.912Z,1.4
2023-03-22T06:57:55.465Z,2.8
2023-03-22T07:00:01.853Z,1.5
2023-03-22T07:02:04.913Z,1.2
2023-03-22T07:04:08.133Z,1.7
2023-03-22T07:06:11.511Z,0.8
2023-03-22T07:08:14.627Z,0.8
2023-03-22T07:10:17.749Z,0.6
2023-03-22T07:12:20.908Z,2.1
2023-03-22T07:16:30.403Z,0.4
2023-03-22T07:18:33.436Z,0.4
2023-03-22T07:22:39.594Z,0.9
2023-03-22T07:24:54.065Z,0.2
2023-03-22T07:26:45.874Z,2.1
2023-03-22T07:28:52.254Z,0.7
2023-03-22T07:30:55.369Z,0.7
2023-03-22T07:32:58.542Z,0.5
2023-03-22T07:34:01.587Z,1.2
2023-03-22T07:38:07.667Z,0.7
2023-03-22T07:40:10.750Z,0.4
2023-03-22T07:46:23.073Z,0.9
2023-03-22T07:48:27.611Z,1.2
2023-03-22T07:50:30.538Z,0.4
2023-03-22T07:52:33.592Z,1.1
2023-03-22T07:56:42.895Z,0.7
2023-03-22T07:58:45.964Z,1.2
2023-03-22T08:00:49.010Z,0.1
2023-03-22T08:02:52.122Z,0.8
2023-03-22T08:04:56.338Z,1.5
2023-03-22T08:06:58.133Z,0.4
2023-03-22T08:09:01.173Z,0.5
2023-03-22T08:11:07.317Z,0.6
2023-03-22T08:13:10.394Z,0.5
2023-03-22T08:15:13.425Z,1.3
2023-03-22T08:17:16.458Z,0.2
2023-03-22T08:19:19.621Z,1.7
2023-03-22T08:21:22.750Z,0.5
2023-03-22T08:23:38.388Z,0.5
2023-03-22T08:25:32.059Z,1.9
2023-03-22T08:27:35.114Z,0.3
2023-03-22T08:29:38.369Z,1.3
2023-03-22T08:32:07.670Z,0.9
2023-03-22T08:34:10.707Z,0.5
2023-03-22T08:40:23.093Z,0.4
2023-03-22T08:52:44.336Z,0.4
2023-03-22T08:54:47.415Z,0.5
2023-03-22T08:56:50.453Z,0.3
2023-03-22T08:58:53.492Z,0.4
2023-03-22T09:02:59.599Z,0.8
2023-03-22T09:05:02.615Z,0.4
2023-03-22T09:07:08.800Z,1.3
2023-03-22T09:09:11.849Z,0.9
2023-03-22T09:11:17.312Z,0.3
2023-03-22T09:13:17.936Z,1.2
2023-03-22T09:15:20.977Z,0.6
2023-03-22T09:26:42.378Z,1.6
2023-03-22T09:28:45.454Z,1.1
2023-03-22T09:30:48.469Z,1
2023-03-22T09:32:51.529Z,0.2
2023-03-22T09:34:57.652Z,0.3
2023-03-22T09:37:00.682Z,0.3
2023-03-22T09:39:03.741Z,0.3
2023-03-22T09:41:06.822Z,0.6
2023-03-22T09:43:09.868Z,0.6
2023-03-22T09:45:12.906Z,0.4
2023-03-22T09:47:16.068Z,0.6
2023-03-22T09:49:22.107Z,1.1
2023-03-22T09:51:25.148Z,0.2
2023-03-22T09:55:31.240Z,0.2
2023-03-22T09:57:34.305Z,0.2
2023-03-22T10:01:40.682Z,0.5
2023-03-22T10:05:49.608Z,1.1
2023-03-22T10:16:04.857Z,0.1
2023-03-22T10:18:11.029Z,0.7
2023-03-22T10:23:20.199Z,0.7
2023-03-22T10:25:23.251Z,0.2
2023-03-22T10:27:26.319Z,1.7
2023-03-22T10:29:29.445Z,0.4
2023-03-22T10:33:38.798Z,0.9
2023-03-22T10:35:42.326Z,0.2
2023-03-22T10:37:45.070Z,0.5
2023-03-22T10:39:48.183Z,1.1
2023-03-22T10:43:54.497Z,0.8
2023-03-22T10:46:00.850Z,0.3
2023-03-22T10:48:04.073Z,0.2
2023-03-22T10:50:07.153Z,0.5
2023-03-22T10:52:10.319Z,0.5
2023-03-22T10:56:16.582Z,0.6
2023-03-22T10:58:19.738Z,2.1
2023-03-22T11:00:26.125Z,0.8
2023-03-22T11:02:29.372Z,0.3
2023-03-22T11:04:32.412Z,0.7
2023-03-22T11:06:35.535Z,1.6
2023-03-22T11:08:38.678Z,0.6
2023-03-22T11:10:41.945Z,0.7
2023-03-22T11:12:44.946Z,1.4
2023-03-22T11:14:51.284Z,0.4
2023-03-22T11:16:54.508Z,1.5
2023-03-22T11:18:57.585Z,0.9
2023-03-22T11:20:00.795Z,0.4
2023-03-22T11:22:03.904Z,1.1
2023-03-22T11:24:07.072Z,0.8
2023-03-22T11:26:10.187Z,0.4
2023-03-22T11:28:16.540Z,1.1
2023-03-22T11:30:19.685Z,1.1
2023-03-22T11:32:22.860Z,0.8
2023-03-22T11:34:25.976Z,1.2
2023-03-22T11:36:29.114Z,1.1
2023-03-22T11:38:32.327Z,0.7
2023-03-22T11:42:41.797Z,1.7
2023-03-22T11:46:48.031Z,0.8
2023-03-22T11:52:57.449Z,0.2
2023-03-22T11:55:00.611Z,0.4
2023-03-22T11:59:10.109Z,1.3
2023-03-22T12:01:13.293Z,0.5
2023-03-22T12:03:16.517Z,0.4
2023-03-22T12:05:19.613Z,0.2
2023-03-22T12:07:22.644Z,0.5
2023-03-22T12:09:25.806Z,0.9
2023-03-22T12:11:32.160Z,0.4
2023-03-22T12:13:35.314Z,0.5
2023-03-22T12:15:38.521Z,0.1
2023-03-22T12:18:08.609Z,0.2
2023-03-22T12:20:11.312Z,0.3
2023-03-22T12:24:20.706Z,0.5
2023-03-22T12:28:26.890Z,0.5
2023-03-22T12:30:30.061Z,0.3
2023-03-22T12:32:33.545Z,0.7
2023-03-22T12:34:36.341Z,1.5
2023-03-22T12:36:39.477Z,0.6
2023-03-22T12:38:45.741Z,1.5
2023-03-22T12:40:48.782Z,0.3
2023-03-22T12:42:54.531Z,0.1
2023-03-22T12:46:58.294Z,0.2
2023-03-22T12:49:01.442Z,0.4
2023-03-22T12:51:04.522Z,0.3
2023-03-22T12:53:10.795Z,0.4
2023-03-22T12:55:13.815Z,0.5
2023-03-22T12:57:16.861Z,0.1
2023-03-22T12:59:20.012Z,1
2023-03-22T13:03:26.371Z,1.1
2023-03-22T13:09:38.626Z,0.4
2023-03-22T13:11:41.661Z,0.6
2023-03-22T13:14:47.821Z,0.3
2023-03-22T13:16:50.874Z,0.1
2023-03-22T13:18:53.860Z,0
2023-03-22T13:21:00.023Z,0.2
2023-03-22T13:23:03.096Z,0.2
2023-03-22T13:25:06.202Z,0.7
2023-03-22T13:27:09.372Z,0.9
2023-03-22T13:29:12.405Z,0.1
2023-03-22T13:31:15.546Z,0.2
2023-03-22T13:33:18.623Z,0.6
2023-03-22T13:35:24.769Z,0.8
2023-03-22T13:37:27.787Z,0.8
2023-03-22T13:41:33.881Z,1.7
2023-03-22T13:43:38.519Z,0.1
2023-03-22T13:45:41.733Z,0.1
2023-03-22T13:47:44.650Z,0.7
2023-03-22T13:51:53.739Z,0.8
2023-03-22T13:53:56.810Z,0.8
2023-03-22T13:55:59.820Z,0.2
2023-03-22T13:58:02.886Z,0.9
2023-03-22T14:00:12.006Z,0.4
2023-03-22T14:02:09.791Z,0.8
2023-03-22T14:06:18.376Z,0.2
2023-03-22T14:08:21.444Z,0.4
2023-03-22T14:09:24.504Z,0.9
2023-03-22T14:11:27.690Z,0.5
2023-03-22T14:13:30.790Z,0.5
2023-03-22T14:15:33.979Z,0.3
2023-03-22T14:17:40.348Z,0.1
2023-03-22T14:19:43.502Z,0.4
2023-03-22T14:21:46.506Z,1
2023-03-22T14:52:39.909Z,1.6
2023-03-22T14:54:43.015Z,0.6
2023-03-22T14:58:49.337Z,1.7
2023-03-22T15:06:05.139Z,1.2
2023-03-22T15:30:49.227Z,0.7
2023-03-22T15:32:52.380Z,2.1
2023-03-22T15:34:55.515Z,2.4
2023-03-22T15:36:58.676Z,1.9
2023-03-22T15:39:01.809Z,1.4
2023-03-22T15:43:11.290Z,0.8
2023-03-22T15:45:14.451Z,1.8
2023-03-22T15:47:17.873Z,1
2023-03-22T15:49:20.722Z,1.3
2023-03-22T15:51:23.860Z,2.3
2023-03-22T15:53:27.019Z,2.1
2023-03-22T15:55:30.164Z,2.7
2023-03-22T15:57:36.547Z,1.5
2023-03-22T15:59:39.646Z,2.3
2023-03-22T16:06:15.462Z,1.9
2023-03-22T16:16:34.423Z,2.9
2023-03-22T16:18:37.509Z,3.4
2023-03-22T16:20:40.678Z,2.9
2023-03-22T16:22:43.820Z,4.6
2023-03-22T16:24:50.158Z,2.3
2023-03-22T16:26:53.298Z,2
2023-03-22T16:28:56.478Z,3.3
2023-03-22T16:35:05.785Z,3.8
2023-03-22T16:37:08.920Z,1.6
2023-03-22T16:39:15.271Z,1.9
2023-03-22T16:49:30.976Z,2.6
2023-03-22T16:53:40.663Z,2.4
2023-03-22T16:55:43.623Z,1.9
2023-03-22T16:57:46.759Z,3.3
2023-03-22T16:58:49.904Z,2.1
2023-03-22T17:00:53.058Z,4.2
2023-03-22T17:02:56.224Z,3
2023-03-22T17:04:59.407Z,2.1
2023-03-22T17:07:05.682Z,1.1
2023-03-22T17:15:18.226Z,1.8
2023-03-22T17:17:21.389Z,1.5
2023-03-22T17:19:24.512Z,2.3
2023-03-22T17:25:37.148Z,2.2
2023-03-22T17:27:40.304Z,1.8
2023-03-22T17:29:43.435Z,4
2023-03-22T17:40:28.327Z,3.9
2023-03-22T17:46:57.242Z,3.2
2023-03-22T17:48:14.975Z,4.8
2023-03-22T17:50:21.227Z,3.5
2023-03-22T17:52:24.370Z,5.3
2023-03-22T17:55:59.053Z,5.9
2023-03-22T18:16:05.331Z,5.1
2023-03-22T18:18:11.670Z,6
2023-03-22T18:20:29.260Z,5.7
2023-03-22T18:24:21.112Z,5.6
2023-03-22T18:26:29.453Z,5.2
2023-03-22T18:28:27.389Z,5.3
2023-03-22T18:30:30.517Z,6.4
2023-03-22T18:32:59.772Z,5.3
2023-03-22T18:36:42.857Z,4.3
2023-03-22T18:42:52.338Z,4.4
2023-03-22T18:47:01.165Z,2.8
2023-03-22T18:49:04.181Z,5
2023-03-22T18:51:11.634Z,4.2
2023-03-22T18:52:40.063Z,3.7
2023-03-22T18:54:13.350Z,3.5
2023-03-22T18:56:17.976Z,4.7
2023-03-22T18:58:19.381Z,3.4
2023-03-22T19:00:25.659Z,4.8
2023-03-22T19:12:44.194Z,5.6
2023-03-22T19:15:18.086Z,5.7
2023-03-22T19:16:53.473Z,4
2023-03-22T19:18:56.559Z,6.1
2023-03-22T19:21:10.075Z,4.7
2023-03-22T19:23:02.726Z,4.4
2023-03-22T19:25:05.759Z,7.2
2023-03-22T19:27:17.642Z,5.6
2023-03-22T19:29:14.944Z,6.2
2023-03-22T19:31:18.031Z,7.8
2023-03-22T19:33:34.786Z,8.6
2023-03-22T19:35:24.165Z,5.9
2023-03-22T19:41:49.391Z,5.5
2023-03-22T19:43:41.271Z,5.7
2023-03-22T19:45:44.413Z,6.3
2023-03-22T19:47:58.252Z,6.1
2023-03-22T19:50:17.239Z,8.8
2023-03-22T19:52:20.290Z,7.5
2023-03-22T19:56:29.594Z,5.4
2023-03-22T20:00:45.548Z,6.6
2023-03-22T20:02:38.809Z,5.6
2023-03-22T20:06:54.893Z,6.9
2023-03-22T20:17:06.783Z,5.3
2023-03-22T20:19:06.302Z,4.3
2023-03-22T20:21:09.456Z,4.7
2023-03-22T20:25:18.954Z,5.8
2023-03-22T20:27:22.099Z,4.8
2023-03-22T20:31:28.278Z,6.3
2023-03-22T20:33:31.433Z,5.1
2023-03-22T20:35:34.525Z,4.5
2023-03-22T20:37:37.691Z,5
2023-03-22T20:43:49.996Z,9.6
2023-03-22T20:44:53.148Z,6.8
2023-03-22T20:48:59.328Z,4.7
2023-03-22T20:51:02.437Z,3.8
2023-03-22T20:53:08.714Z,6.4
2023-03-22T20:55:11.752Z,5.4
2023-03-22T20:57:14.956Z,5.1
2023-03-22T20:59:18.035Z,5.8
2023-03-22T21:01:21.150Z,4.7
2023-03-22T21:03:24.300Z,5.7
2023-03-22T21:05:27.434Z,5.7
2023-03-22T21:07:33.795Z,5.7
2023-03-22T21:09:36.922Z,6.1
2023-03-22T21:11:40.065Z,5.5
2023-03-22T21:13:43.218Z,5.8
2023-03-22T21:15:46.356Z,4.8
2023-03-22T21:17:50.463Z,6.7
2023-03-22T21:22:04.945Z,5.4
2023-03-22T21:24:02.135Z,5.7
2023-03-22T21:26:05.257Z,6.3
2023-03-22T21:28:08.403Z,5.2
2023-03-22T21:30:11.528Z,5.7
2023-03-22T21:32:14.767Z,6.5
2023-03-22T21:34:17.834Z,6.5
2023-03-22T21:41:33.630Z,5.6
2023-03-22T21:43:36.647Z,7
2023-03-22T21:45:39.833Z,5.9
2023-03-22T21:47:42.829Z,6.5
2023-03-22T21:49:49.179Z,6.4
2023-03-22T21:51:52.317Z,6.3
2023-03-22T21:55:58.591Z,4.4
2023-03-22T21:58:01.763Z,4.9
2023-03-22T22:06:17.429Z,4.4
2023-03-22T22:08:20.577Z,5.4
2023-03-22T22:10:23.575Z,3.3
2023-03-22T22:14:29.765Z,4.2
2023-03-22T22:16:32.802Z,3.9
2023-03-22T22:20:42.002Z,3.9
2023-03-22T22:28:54.235Z,4.7
2023-03-22T22:33:03.560Z,3.3
2023-03-22T22:35:06.717Z,3.3
2023-03-22T22:37:09.860Z,3.2
2023-03-22T22:38:13.026Z,4.1
2023-03-22T22:40:16.114Z,4.1
2023-03-22T22:42:19.091Z,2.3
2023-03-22T22:46:28.293Z,2.6
2023-03-22T22:50:34.385Z,3.8
2023-03-22T22:52:37.402Z,3.1
2023-03-22T22:54:40.475Z,2.3
2023-03-22T22:58:46.529Z,2.2
2023-03-22T23:00:52.694Z,3.1
2023-03-22T23:02:55.732Z,3
2023-03-22T23:04:58.753Z,2.2
2023-03-22T23:07:01.927Z,2.9
2023-03-22T23:09:04.823Z,3
2023-03-22T23:11:07.866Z,3.3
2023-03-22T23:13:10.913Z,2
2023-03-22T23:15:27.050Z,2.8
2023-03-22T23:29:41.550Z,2.7
2023-03-22T23:33:47.650Z,1.5
2023-03-22T23:36:17.243Z,3
2023-03-22T23:38:20.277Z,3
2023-03-22T23:44:32.532Z,1.9
2023-03-22T23:48:38.588Z,1.7
